Purdum, Nebraska
Current Conditions -  °F | °C
As of 8:35 PM on Sunday 21 Dec 2014 (Local Time) from KTIF Reporting Station
Clear Clear  
Wind Chill: 28°   Ceiling: Unl
Heat Index: 36°   Visibility: 7mi
Dew Point: 33°   Wind: 10mph
Humidity: 91%   Direction: 210°SSW
Pressure: 29.45"   Gusts: NA
Location:  42.06°N, 100.25°W
Report Text: KTIF 220235Z AUTO 21009KT 7SM CLR 02/01 A2945 RMK AO2 T00200006
Loading
Personal Weather Stations






























Interactive Weather Map New forecast layout! Learn more

10-Day Weather Forecast

Advertisements
Track Severe Weather on mobile